Time;durP1;ratioP1;P1;durP2;ratioP2;P2;SDS_P1;SDS_P2;PMS_P1;PMS_P2;Temp;Humidity;BMP_temperature;BMP_pressure;BME280_temperature;BME280_humidity;BME280_pressure;Samples;Min_cycle;Max_cycle;Signal;HPM_P1;HPM_P2
2021/12/26 00:00:31;;;;;;;14.33;8.07;;;14.00;58.50;;;;;;1989713;28;20178;-69
2021/12/26 00:01:29;;;;;;;14.95;7.68;;;14.00;58.40;;;;;;1989615;28;20187;-69
2021/12/26 00:02:28;;;;;;;20.00;8.27;;;13.90;58.40;;;;;;1989675;28;20533;-68
2021/12/26 00:03:28;;;;;;;17.90;7.63;;;14.00;58.30;;;;;;1989561;28;20583;-68
2021/12/26 00:04:27;;;;;;;15.90;7.53;;;14.00;58.30;;;;;;1989464;28;20230;-68
2021/12/26 00:05:27;;;;;;;15.53;8.07;;;13.90;58.30;;;;;;1989629;28;20210;-68
2021/12/26 00:06:28;;;;;;;15.02;9.20;;;14.00;58.30;;;;;;1989495;28;20187;-67
2021/12/26 00:07:26;;;;;;;18.73;8.65;;;13.90;58.20;;;;;;1989638;28;20206;-68
2021/12/26 00:08:25;;;;;;;19.70;8.60;;;13.90;58.20;;;;;;1989581;28;20533;-69
2021/12/26 00:09:23;;;;;;;15.17;8.90;;;13.90;58.30;;;;;;1989596;28;20174;-68
2021/12/26 00:10:24;;;;;;;10.93;7.50;;;14.00;58.30;;;;;;1989591;28;20170;-68
2021/12/26 00:11:24;;;;;;;12.30;7.78;;;14.00;58.30;;;;;;1989622;28;20611;-68
2021/12/26 00:12:22;;;;;;;12.55;8.02;;;13.90;58.30;;;;;;1989641;28;20544;-68
2021/12/26 00:13:21;;;;;;;14.33;7.63;;;13.90;58.30;;;;;;1989576;28;20170;-68
2021/12/26 00:14:20;;;;;;;17.83;8.10;;;13.90;58.20;;;;;;1989704;28;20186;-69
2021/12/26 00:15:20;;;;;;;15.40;9.10;;;13.90;58.30;;;;;;1989507;28;20256;-69
2021/12/26 00:16:19;;;;;;;14.77;7.43;;;13.90;58.30;;;;;;1989573;28;20278;-68
2021/12/26 00:17:18;;;;;;;14.90;8.20;;;14.00;58.50;;;;;;1989550;28;20182;-68
2021/12/26 00:18:16;;;;;;;17.20;7.93;;;14.00;58.40;;;;;;1989614;28;20261;-69
2021/12/26 00:19:15;;;;;;;11.90;7.23;;;14.00;58.20;;;;;;1989694;28;20189;-69
2021/12/26 00:20:14;;;;;;;13.60;8.03;;;14.10;58.30;;;;;;1989452;28;20183;-69
2021/12/26 00:21:18;;;;;;;15.00;7.30;;;14.00;58.40;;;;;;1989686;28;20186;-68
2021/12/26 00:22:17;;;;;;;15.05;8.38;;;14.00;58.40;;;;;;1989715;28;20615;-69
2021/12/26 00:23:16;;;;;;;11.77;8.10;;;13.90;58.30;;;;;;1989767;28;20182;-68
2021/12/26 00:24:15;;;;;;;14.90;7.88;;;14.10;58.60;;;;;;1989887;28;20226;-68
2021/12/26 00:25:15;;;;;;;17.40;9.13;;;14.00;58.60;;;;;;1990018;28;20174;-68
2021/12/26 00:26:14;;;;;;;13.95;8.80;;;14.00;58.60;;;;;;1991099;28;20198;-68
2021/12/26 00:27:14;;;;;;;10.20;6.93;;;14.00;58.70;;;;;;1998789;28;20246;-68
2021/12/26 00:28:13;;;;;;;11.75;7.40;;;13.90;58.70;;;;;;1998920;28;20402;-67
2021/12/26 00:29:12;;;;;;;14.27;7.97;;;14.00;59.00;;;;;;1998472;28;20209;-68
2021/12/26 00:30:14;;;;;;;16.33;8.90;;;14.00;59.10;;;;;;1998401;28;20630;-68
2021/12/26 00:31:16;;;;;;;14.23;8.18;;;14.00;59.40;;;;;;1990740;28;20402;-68
2021/12/26 00:32:15;;;;;;;14.63;8.48;;;14.00;59.70;;;;;;1989197;28;20221;-68
2021/12/26 00:33:13;;;;;;;11.57;7.50;;;13.90;60.00;;;;;;1989326;28;20210;-68
2021/12/26 00:34:12;;;;;;;12.73;7.43;;;14.00;61.00;;;;;;1989331;28;20174;-68
2021/12/26 00:35:12;;;;;;;13.23;7.13;;;14.00;62.00;;;;;;1989387;28;20184;-68
2021/12/26 00:36:11;;;;;;;17.80;8.18;;;14.10;65.50;;;;;;1989255;28;20175;-67
2021/12/26 00:37:10;;;;;;;13.52;7.13;;;14.00;70.50;;;;;;1989346;28;20234;-68
2021/12/26 00:38:09;;;;;;;11.40;7.40;;;14.00;73.70;;;;;;1989315;28;20623;-69
2021/12/26 00:39:09;;;;;;;11.73;7.05;;;13.90;70.60;;;;;;1989213;28;20182;-68
2021/12/26 00:40:10;;;;;;;10.68;6.80;;;14.00;73.50;;;;;;1988706;28;20182;-69
2021/12/26 00:41:09;;;;;;;12.82;6.72;;;14.00;78.20;;;;;;1988793;28;20626;-69
2021/12/26 00:42:07;;;;;;;10.50;7.03;;;13.80;76.10;;;;;;1989353;28;20183;-68
2021/12/26 00:43:06;;;;;;;9.43;6.60;;;13.90;59.10;;;;;;1989352;28;20261;-69
2021/12/26 00:44:08;;;;;;;8.70;6.60;;;14.00;59.00;;;;;;1989079;28;20186;-69
2021/12/26 00:45:07;;;;;;;12.52;7.55;;;14.00;59.00;;;;;;1989171;28;20414;-69
2021/12/26 00:46:06;;;;;;;11.55;5.93;;;13.90;59.00;;;;;;1989139;28;20265;-68
2021/12/26 00:47:06;;;;;;;13.57;7.63;;;13.90;59.00;;;;;;1989337;28;20174;-69
2021/12/26 00:48:07;;;;;;;16.70;7.78;;;14.00;59.20;;;;;;1989245;28;20634;-69
2021/12/26 00:49:05;;;;;;;10.48;6.40;;;14.00;59.00;;;;;;1989355;28;20174;-69
2021/12/26 00:50:07;;;;;;;13.23;6.33;;;13.90;58.90;;;;;;1989410;28;20194;-69
2021/12/26 00:51:06;;;;;;;9.90;6.43;;;14.00;59.10;;;;;;1989421;28;20399;-69
2021/12/26 00:52:06;;;;;;;11.80;6.43;;;13.90;59.10;;;;;;1989167;28;20177;-69
2021/12/26 00:53:05;;;;;;;13.98;6.93;;;14.00;59.10;;;;;;1989235;28;20174;-68
2021/12/26 00:54:04;;;;;;;13.32;7.00;;;13.90;59.10;;;;;;1989343;28;20221;-68
2021/12/26 00:55:04;;;;;;;11.90;6.93;;;13.90;59.10;;;;;;1988590;28;20222;-69
2021/12/26 00:56:04;;;;;;;12.20;6.47;;;14.00;59.20;;;;;;1988621;28;20222;-69
2021/12/26 00:57:04;;;;;;;10.75;6.93;;;14.00;59.20;;;;;;1989153;28;20174;-69
2021/12/26 00:58:04;;;;;;;8.68;5.82;;;13.90;59.10;;;;;;1989034;28;20182;-69
2021/12/26 00:59:03;;;;;;;11.80;7.03;;;13.90;59.20;;;;;;1989310;28;20388;-68
2021/12/26 01:00:06;;;;;;;8.20;5.67;;;14.00;59.20;;;;;;1989173;28;20315;-69
2021/12/26 01:01:14;;;;;;;9.52;5.82;;;14.00;59.20;;;;;;1989149;28;20178;-69
2021/12/26 01:02:13;;;;;;;9.93;7.22;;;14.00;59.20;;;;;;1989200;28;20162;-68
2021/12/26 01:03:13;;;;;;;10.23;6.33;;;13.90;59.30;;;;;;1989149;28;20178;-69
2021/12/26 01:04:13;;;;;;;12.23;6.72;;;13.90;59.30;;;;;;1989022;28;20544;-68
2021/12/26 01:05:12;;;;;;;10.02;6.30;;;13.90;59.30;;;;;;1988498;28;20190;-68
2021/12/26 01:06:10;;;;;;;14.87;6.93;;;13.90;59.40;;;;;;1988380;28;20189;-68
2021/12/26 01:07:23;;;;;;;9.77;6.60;;;13.90;59.30;;;;;;1989072;28;20402;-68
2021/12/26 01:08:27;;;;;;;11.95;6.68;;;13.90;59.30;;;;;;1989051;28;20162;-69
2021/12/26 01:09:28;;;;;;;13.05;6.72;;;13.90;59.40;;;;;;1989157;28;20159;-68
2021/12/26 01:10:40;;;;;;;11.60;6.40;;;13.90;59.40;;;;;;1989243;28;20189;-67
2021/12/26 01:11:45;;;;;;;9.35;6.20;;;13.90;59.20;;;;;;1989117;28;20635;-67
2021/12/26 01:12:44;;;;;;;11.73;6.40;;;13.90;59.40;;;;;;1989345;28;20155;-67
2021/12/26 01:13:45;;;;;;;11.13;6.93;;;13.90;59.40;;;;;;1988365;28;20190;-68
2021/12/26 01:14:49;;;;;;;9.23;6.30;;;13.90;59.50;;;;;;1988544;28;20214;-67
2021/12/26 01:15:52;;;;;;;10.77;6.35;;;13.90;59.50;;;;;;1989156;28;20162;-67
2021/12/26 01:17:01;;;;;;;10.00;6.20;;;13.90;59.50;;;;;;1989044;28;20190;-68
2021/12/26 01:18:00;;;;;;;9.30;5.95;;;13.90;59.50;;;;;;1989032;28;20166;-68
2021/12/26 01:19:06;;;;;;;9.03;5.90;;;13.80;59.60;;;;;;1989063;28;20205;-68
2021/12/26 01:20:09;;;;;;;11.02;5.70;;;13.90;59.60;;;;;;1989186;28;20238;-68
2021/12/26 01:21:25;;;;;;;8.65;5.70;;;13.80;59.70;;;;;;1989009;28;20723;-68
2021/12/26 01:22:24;;;;;;;10.00;5.63;;;14.00;59.70;;;;;;1989145;28;20165;-68
2021/12/26 01:23:25;;;;;;;10.32;6.43;;;13.90;59.80;;;;;;1989099;28;20249;-68
2021/12/26 01:24:23;;;;;;;12.02;6.43;;;13.90;59.80;;;;;;1989087;28;20717;-68
2021/12/26 01:25:22;;;;;;;10.93;5.93;;;13.90;59.70;;;;;;1989039;28;20391;-67
2021/12/26 01:26:22;;;;;;;11.80;6.27;;;13.90;59.60;;;;;;1989053;28;20202;-68
2021/12/26 01:27:20;;;;;;;7.75;5.60;;;13.80;59.80;;;;;;1989058;28;20178;-69
2021/12/26 01:28:21;;;;;;;8.83;5.80;;;13.80;59.90;;;;;;1989046;28;20209;-68
2021/12/26 01:29:19;;;;;;;10.07;6.20;;;13.90;60.00;;;;;;1989012;28;20273;-68
2021/12/26 01:30:18;;;;;;;9.03;5.50;;;14.00;60.10;;;;;;1989014;28;20183;-68
2021/12/26 01:31:19;;;;;;;7.60;5.80;;;13.80;60.00;;;;;;1989144;28;20170;-69
2021/12/26 01:32:18;;;;;;;10.82;6.00;;;14.00;60.00;;;;;;1988763;28;20273;-69
2021/12/26 01:33:19;;;;;;;10.03;6.33;;;13.90;59.90;;;;;;1988982;28;20634;-69
2021/12/26 01:34:17;;;;;;;8.27;5.45;;;13.90;60.00;;;;;;1988974;28;20438;-69
2021/12/26 01:35:16;;;;;;;8.77;5.47;;;13.90;60.00;;;;;;1988993;28;20186;-69
2021/12/26 01:36:15;;;;;;;10.37;6.53;;;13.90;60.00;;;;;;1988891;28;20213;-69
2021/12/26 01:37:14;;;;;;;10.17;5.97;;;13.90;60.00;;;;;;1988921;28;20175;-69
2021/12/26 01:38:14;;;;;;;14.05;6.20;;;14.00;60.50;;;;;;1989089;28;20229;-69
2021/12/26 01:39:12;;;;;;;8.48;5.85;;;13.90;60.40;;;;;;1988291;28;20660;-69
2021/12/26 01:40:11;;;;;;;9.60;5.87;;;13.90;60.60;;;;;;1988502;28;20178;-69
2021/12/26 01:41:10;;;;;;;13.50;6.20;;;13.90;61.10;;;;;;1989028;28;20174;-69
2021/12/26 01:42:10;;;;;;;10.43;6.40;;;13.90;61.80;;;;;;1989094;28;20182;-69
2021/12/26 01:43:09;;;;;;;8.30;4.88;;;13.90;61.70;;;;;;1988927;28;20174;-69
2021/12/26 01:44:11;;;;;;;8.17;5.70;;;13.90;61.60;;;;;;1988851;28;20174;-68
2021/12/26 01:45:11;;;;;;;11.25;6.07;;;13.90;61.70;;;;;;1989053;28;20183;-68
2021/12/26 01:46:09;;;;;;;9.50;5.97;;;13.90;61.70;;;;;;1988268;28;20638;-68
2021/12/26 01:47:08;;;;;;;9.90;5.80;;;13.90;61.60;;;;;;1988399;28;20186;-68
2021/12/26 01:48:07;;;;;;;10.27;5.53;;;13.90;61.60;;;;;;1988843;28;20179;-69
2021/12/26 01:49:16;;;;;;;7.83;5.77;;;13.90;61.80;;;;;;1988963;28;20696;-68
2021/12/26 01:50:15;;;;;;;9.18;5.68;;;13.90;61.60;;;;;;1988843;28;20264;-69
2021/12/26 01:51:13;;;;;;;6.93;5.23;;;13.90;61.60;;;;;;1988997;28;20237;-69
2021/12/26 01:52:12;;;;;;;14.93;6.63;;;14.00;61.80;;;;;;1988972;28;20183;-69
2021/12/26 01:53:10;;;;;;;12.50;6.77;;;14.00;62.00;;;;;;1988937;28;20190;-68
2021/12/26 01:54:11;;;;;;;11.00;6.00;;;13.80;61.90;;;;;;1989091;28;20198;-68
2021/12/26 01:56:27;;;;;;;10.63;5.80;;;13.90;62.30;;;;;;1989813;28;20195;-68
2021/12/26 01:57:25;;;;;;;13.97;5.83;;;13.80;62.10;;;;;;1990750;28;20214;-68
2021/12/26 01:58:29;;;;;;;9.23;5.57;;;13.80;61.90;;;;;;1990488;28;20166;-68
2021/12/26 01:59:29;;;;;;;9.35;5.70;;;13.80;61.80;;;;;;1990553;28;20190;-68
2021/12/26 02:00:27;;;;;;;9.13;6.20;;;13.80;61.90;;;;;;1990475;28;20257;-68
2021/12/26 02:01:26;;;;;;;9.13;5.57;;;13.80;62.10;;;;;;1989902;28;20197;-68
2021/12/26 02:02:25;;;;;;;13.90;5.80;;;13.90;62.40;;;;;;1989950;28;20653;-68
2021/12/26 02:03:24;;;;;;;7.43;5.70;;;13.80;63.60;;;;;;1990449;28;20836;-68
2021/12/26 02:04:26;;;;;;;8.25;5.15;;;13.80;66.70;;;;;;1989557;28;20625;-68
2021/12/26 02:05:25;;;;;;;8.98;5.57;;;13.80;67.50;;;;;;1989929;28;20186;-68
2021/12/26 02:06:23;;;;;;;8.30;5.70;;;13.80;69.30;;;;;;1990567;28;20248;-68
2021/12/26 02:07:22;;;;;;;11.30;4.97;;;13.90;66.40;;;;;;1990428;28;20174;-68
2021/12/26 02:08:21;;;;;;;6.90;5.03;;;13.90;65.80;;;;;;1990340;28;20219;-68
2021/12/26 02:09:19;;;;;;;7.35;5.50;;;13.90;66.10;;;;;;1990532;28;20179;-68
2021/12/26 02:10:18;;;;;;;7.57;5.80;;;13.90;65.80;;;;;;1990377;28;20190;-68
2021/12/26 02:11:17;;;;;;;12.17;5.60;;;13.90;65.40;;;;;;1990367;28;20235;-68
2021/12/26 02:12:16;;;;;;;9.35;5.88;;;13.90;68.50;;;;;;1990532;28;20202;-68
2021/12/26 02:13:14;;;;;;;8.60;5.33;;;13.90;64.70;;;;;;1990388;28;20513;-68
2021/12/26 02:14:13;;;;;;;11.27;5.83;;;13.90;64.80;;;;;;1990574;28;20173;-68
2021/12/26 02:15:12;;;;;;;10.60;5.77;;;13.90;71.20;;;;;;1990383;28;20179;-68
2021/12/26 02:16:11;;;;;;;8.20;5.03;;;14.10;74.40;;;;;;1990424;28;20170;-69
2021/12/26 02:17:09;;;;;;;6.45;4.45;;;13.80;68.40;;;;;;1990467;28;20581;-68
2021/12/26 02:18:10;;;;;;;8.27;4.80;;;13.80;71.90;;;;;;1990452;28;20182;-68
2021/12/26 02:19:10;;;;;;;7.72;5.43;;;13.90;70.70;;;;;;1990323;28;20179;-68
2021/12/26 02:20:14;;;;;;;7.78;4.97;;;13.80;65.70;;;;;;1990473;28;20189;-68
2021/12/26 02:22:24;;;;;;;11.48;5.85;;;13.80;68.40;;;;;;1990042;28;20166;-68
2021/12/26 02:24:34;;;;;;;7.60;5.20;;;13.80;73.80;;;;;;1990371;28;20346;-68
2021/12/26 02:28:01;;;;;;;7.13;5.25;;;13.70;70.40;;;;;;1990485;28;20603;-68
2021/12/26 02:28:59;;;;;;;6.43;4.60;;;13.80;67.10;;;;;;1990416;28;20202;-68
2021/12/26 02:30:08;;;;;;;9.33;5.20;;;13.70;67.30;;;;;;1990309;28;20190;-68
2021/12/26 02:31:06;;;;;;;6.97;5.07;;;13.70;67.40;;;;;;1990150;28;20186;-68
2021/12/26 02:32:06;;;;;;;6.93;5.03;;;13.70;68.00;;;;;;1990149;28;20729;-68
2021/12/26 02:33:08;;;;;;;8.05;5.30;;;13.60;68.80;;;;;;1990179;28;20270;-68
2021/12/26 02:34:06;;;;;;;6.13;4.63;;;13.60;69.70;;;;;;1990306;28;20637;-68
2021/12/26 02:35:06;;;;;;;9.70;5.10;;;13.60;73.30;;;;;;1990190;28;20224;-68
2021/12/26 02:36:05;;;;;;;8.98;5.00;;;13.60;70.90;;;;;;1990106;28;20174;-67
2021/12/26 02:37:04;;;;;;;11.32;5.40;;;13.50;68.90;;;;;;1990168;28;20182;-67
2021/12/26 02:38:04;;;;;;;6.50;4.70;;;13.50;69.00;;;;;;1990212;28;20233;-68
2021/12/26 02:39:03;;;;;;;7.70;5.30;;;13.50;74.30;;;;;;1990256;28;20225;-68
2021/12/26 02:40:04;;;;;;;9.30;4.50;;;13.50;71.50;;;;;;1990249;28;20178;-68
2021/12/26 02:41:03;;;;;;;8.02;5.55;;;13.50;71.20;;;;;;1990209;28;20202;-68
2021/12/26 02:42:02;;;;;;;7.80;5.03;;;13.40;70.00;;;;;;1990244;28;20202;-68
2021/12/26 02:43:01;;;;;;;7.25;4.93;;;13.40;59.60;;;;;;1990214;28;20342;-68
2021/12/26 02:44:00;;;;;;;6.10;4.83;;;13.40;60.10;;;;;;1989916;28;20230;-68
2021/12/26 02:44:58;;;;;;;7.67;4.57;;;13.50;60.10;;;;;;1990084;28;20184;-68
2021/12/26 02:45:57;;;;;;;7.13;4.43;;;13.50;60.00;;;;;;1990162;28;20201;-68
2021/12/26 02:46:55;;;;;;;7.90;4.90;;;13.50;59.90;;;;;;1990187;28;20257;-68
2021/12/26 02:47:54;;;;;;;5.63;4.30;;;13.50;59.90;;;;;;1990256;28;20583;-67
2021/12/26 02:48:53;;;;;;;7.10;4.80;;;13.50;60.00;;;;;;1990146;28;20716;-68
2021/12/26 02:49:51;;;;;;;8.07;4.63;;;13.40;59.90;;;;;;1990089;28;20526;-68
2021/12/26 02:50:56;;;;;;;6.70;4.53;;;13.60;60.10;;;;;;1990240;28;20175;-67
2021/12/26 02:51:55;;;;;;;7.68;4.45;;;13.50;60.00;;;;;;1990287;28;20151;-68
2021/12/26 02:52:54;;;;;;;5.50;4.60;;;13.60;60.00;;;;;;1989417;28;20677;-68
2021/12/26 02:53:53;;;;;;;7.13;4.65;;;13.50;60.10;;;;;;1989659;28;20163;-68
2021/12/26 02:54:51;;;;;;;11.13;5.33;;;13.40;60.00;;;;;;1990007;28;20186;-68
2021/12/26 02:55:51;;;;;;;8.53;5.03;;;13.40;60.10;;;;;;1990016;28;20187;-68
2021/12/26 02:56:50;;;;;;;6.90;4.82;;;13.40;60.20;;;;;;1990006;28;20252;-68
2021/12/26 02:57:51;;;;;;;5.80;3.80;;;13.30;60.30;;;;;;1990109;28;20325;-68
2021/12/26 02:58:50;;;;;;;10.80;5.03;;;13.30;60.30;;;;;;1989987;28;20189;-68
2021/12/26 02:59:48;;;;;;;6.90;4.33;;;13.30;60.50;;;;;;1990120;28;20194;-69
2021/12/26 03:00:54;;;;;;;5.00;4.37;;;13.40;60.50;;;;;;1990118;28;20175;-68
2021/12/26 03:01:52;;;;;;;6.25;4.15;;;13.30;60.50;;;;;;1990180;28;20505;-68
2021/12/26 03:02:54;;;;;;;9.47;4.70;;;13.30;60.50;;;;;;1990258;28;20186;-68
2021/12/26 03:03:53;;;;;;;8.00;5.45;;;13.30;60.50;;;;;;1990144;28;20261;-69
2021/12/26 03:04:51;;;;;;;7.13;4.93;;;13.30;60.40;;;;;;1990006;28;20206;-69
2021/12/26 03:06:04;;;;;;;17.50;4.77;;;13.30;60.40;;;;;;1989998;28;20181;-68
2021/12/26 03:07:03;;;;;;;8.02;4.57;;;13.30;60.40;;;;;;1989614;28;20603;-68
2021/12/26 03:08:02;;;;;;;7.00;4.43;;;13.30;60.50;;;;;;1989202;28;20216;-68
2021/12/26 03:09:00;;;;;;;6.90;4.33;;;13.30;60.50;;;;;;1990012;28;20186;-68
2021/12/26 03:10:00;;;;;;;7.70;4.70;;;13.30;60.70;;;;;;1990155;28;20449;-68
2021/12/26 03:10:59;;;;;;;10.18;5.15;;;13.30;60.50;;;;;;1989991;28;20307;-69
2021/12/26 03:11:58;;;;;;;10.25;4.43;;;13.30;60.60;;;;;;1990073;28;20244;-68
2021/12/26 03:13:00;;;;;;;10.40;4.83;;;13.40;60.70;;;;;;1989904;28;20688;-68
2021/12/26 03:14:00;;;;;;;6.88;4.95;;;13.30;60.70;;;;;;1990111;28;20181;-68
2021/12/26 03:14:59;;;;;;;6.15;4.45;;;13.40;60.70;;;;;;1989956;28;20167;-68
2021/12/26 03:15:58;;;;;;;7.20;4.80;;;13.30;60.60;;;;;;1989846;28;20175;-68
2021/12/26 03:17:00;;;;;;;6.35;4.90;;;13.30;60.60;;;;;;1989948;28;20194;-68
2021/12/26 03:18:00;;;;;;;6.75;3.90;;;13.40;60.50;;;;;;1989983;28;20181;-68
2021/12/26 03:18:59;;;;;;;7.72;5.00;;;13.20;60.50;;;;;;1989814;28;20249;-69
2021/12/26 03:19:58;;;;;;;7.47;4.47;;;13.20;60.70;;;;;;1990006;28;20265;-69
2021/12/26 03:20:56;;;;;;;8.40;4.60;;;13.20;60.70;;;;;;1989450;28;20186;-68
2021/12/26 03:21:55;;;;;;;6.90;4.03;;;13.20;60.70;;;;;;1989526;28;20175;-68
2021/12/26 03:22:55;;;;;;;12.40;5.33;;;13.30;61.50;;;;;;1989990;28;20170;-68
2021/12/26 03:23:53;;;;;;;5.13;4.22;;;13.30;60.80;;;;;;1989939;28;20191;-69
2021/12/26 03:24:52;;;;;;;8.00;4.33;;;13.20;60.70;;;;;;1989937;28;20692;-69
2021/12/26 03:25:54;;;;;;;5.80;4.10;;;13.20;60.60;;;;;;1990085;28;20166;-68
2021/12/26 03:27:05;;;;;;;6.72;4.40;;;13.20;60.90;;;;;;1989853;28;20269;-69
2021/12/26 03:28:06;;;;;;;5.93;4.53;;;13.30;60.80;;;;;;1990141;28;20162;-68
2021/12/26 03:29:05;;;;;;;8.48;5.00;;;13.20;60.80;;;;;;1989998;28;20627;-69
2021/12/26 03:30:07;;;;;;;7.07;4.07;;;13.30;60.80;;;;;;1989420;28;20178;-69
2021/12/26 03:31:06;;;;;;;11.23;5.18;;;13.30;60.90;;;;;;1981605;29;20569;-68
2021/12/26 03:32:05;;;;;;;6.90;4.90;;;13.30;61.00;;;;;;1989333;28;20302;-68
2021/12/26 03:33:07;;;;;;;6.28;4.47;;;13.30;61.10;;;;;;1990187;28;20174;-68
2021/12/26 03:34:05;;;;;;;8.27;5.03;;;13.30;61.90;;;;;;1990280;28;20171;-68
2021/12/26 03:35:04;;;;;;;6.83;4.33;;;13.20;61.00;;;;;;1998569;28;20179;-68
2021/12/26 03:36:03;;;;;;;9.80;4.35;;;13.20;61.20;;;;;;1999335;28;20174;-68
2021/12/26 03:37:02;;;;;;;8.13;4.77;;;13.30;61.20;;;;;;1999315;28;20263;-68
2021/12/26 03:38:03;;;;;;;6.10;3.97;;;13.30;61.20;;;;;;1999306;28;20417;-68
2021/12/26 03:39:02;;;;;;;9.48;4.63;;;13.20;61.00;;;;;;1992397;28;20188;-67
2021/12/26 03:40:01;;;;;;;7.00;4.43;;;13.30;61.20;;;;;;1989840;28;20178;-70
2021/12/26 03:41:00;;;;;;;4.93;3.70;;;13.20;61.20;;;;;;1989719;28;20475;-67
2021/12/26 03:41:58;;;;;;;7.18;4.28;;;13.30;61.50;;;;;;1989817;28;20175;-67
2021/12/26 03:42:57;;;;;;;7.13;4.00;;;13.30;61.30;;;;;;1989768;28;20185;-68
2021/12/26 03:43:56;;;;;;;6.10;5.03;;;13.30;61.20;;;;;;1989818;28;20665;-69
2021/12/26 03:44:55;;;;;;;4.87;3.60;;;13.20;61.10;;;;;;1989634;28;20210;-68
2021/12/26 03:45:54;;;;;;;7.53;4.90;;;13.20;61.30;;;;;;1989680;28;20174;-68
2021/12/26 03:46:52;;;;;;;5.72;4.60;;;13.40;61.70;;;;;;1989690;28;20552;-68
2021/12/26 03:47:51;;;;;;;5.30;4.03;;;13.20;61.70;;;;;;1989709;28;20175;-69
2021/12/26 03:48:50;;;;;;;6.13;4.50;;;13.20;61.70;;;;;;1989817;28;20496;-68
2021/12/26 03:49:49;;;;;;;8.50;4.20;;;13.10;61.60;;;;;;1989710;28;20174;-68
2021/12/26 03:50:48;;;;;;;7.32;4.88;;;13.20;61.90;;;;;;1989059;28;20178;-68
2021/12/26 03:51:47;;;;;;;8.00;4.70;;;13.10;62.10;;;;;;1989228;28;20170;-68
2021/12/26 03:52:50;;;;;;;7.30;4.07;;;13.40;62.30;;;;;;1989738;28;20408;-68
2021/12/26 03:53:48;;;;;;;8.15;4.68;;;13.30;62.20;;;;;;1989974;28;20212;-68
2021/12/26 03:54:47;;;;;;;6.23;4.30;;;13.10;62.20;;;;;;1989684;28;20245;-68
2021/12/26 03:55:46;;;;;;;6.27;4.40;;;13.10;62.20;;;;;;1989636;28;20175;-68
2021/12/26 03:56:45;;;;;;;6.00;4.18;;;13.10;62.30;;;;;;1989576;28;20677;-68
2021/12/26 03:57:44;;;;;;;7.23;4.40;;;13.20;62.40;;;;;;1989676;28;20186;-68
2021/12/26 03:58:42;;;;;;;6.17;4.47;;;13.20;62.40;;;;;;1989670;28;20194;-68
2021/12/26 03:59:41;;;;;;;7.07;4.17;;;13.20;62.70;;;;;;1989640;28;20174;-68
2021/12/26 04:00:42;;;;;;;6.57;3.83;;;13.10;63.00;;;;;;1989696;28;20595;-68
2021/12/26 04:01:40;;;;;;;5.90;3.65;;;13.10;64.10;;;;;;1989729;28;20690;-68
2021/12/26 04:02:39;;;;;;;4.20;3.43;;;13.30;64.50;;;;;;1989629;28;20182;-68
2021/12/26 04:03:37;;;;;;;5.83;4.10;;;13.20;65.20;;;;;;1989591;28;20185;-68
2021/12/26 04:04:36;;;;;;;5.37;3.90;;;13.20;65.80;;;;;;1989610;28;20718;-68
2021/12/26 04:05:35;;;;;;;5.40;3.63;;;13.10;65.40;;;;;;1989581;28;20627;-68
2021/12/26 04:06:33;;;;;;;5.20;3.63;;;13.10;64.50;;;;;;1989511;28;20199;-68
2021/12/26 04:07:32;;;;;;;8.50;4.40;;;13.10;64.10;;;;;;1989779;28;20179;-68
2021/12/26 04:08:30;;;;;;;6.73;3.87;;;13.10;64.10;;;;;;1989638;28;20182;-68
2021/12/26 04:09:29;;;;;;;6.90;4.23;;;13.10;64.00;;;;;;1989594;28;20213;-68
2021/12/26 04:10:27;;;;;;;7.10;4.10;;;13.10;64.00;;;;;;1989594;28;20600;-68
2021/12/26 04:11:26;;;;;;;4.30;3.60;;;13.10;64.00;;;;;;1989539;28;20179;-68
2021/12/26 04:12:24;;;;;;;5.60;4.13;;;13.10;64.00;;;;;;1989688;28;20233;-68
2021/12/26 04:13:23;;;;;;;6.37;3.60;;;13.10;64.20;;;;;;1989566;28;20201;-67
2021/12/26 04:14:21;;;;;;;6.50;3.90;;;13.10;64.30;;;;;;1989507;28;20553;-71
2021/12/26 04:15:22;;;;;;;7.27;4.33;;;13.10;64.70;;;;;;1989548;28;20186;-68
2021/12/26 04:16:21;;;;;;;5.07;4.25;;;13.10;66.00;;;;;;1989571;28;20557;-68
2021/12/26 04:17:19;;;;;;;5.77;3.97;;;13.10;67.50;;;;;;1989534;28;20182;-68
2021/12/26 04:18:18;;;;;;;3.93;3.50;;;13.10;69.70;;;;;;1989489;28;20625;-68
2021/12/26 04:19:17;;;;;;;5.10;3.50;;;13.00;70.40;;;;;;1989065;28;20205;-68
2021/12/26 04:20:15;;;;;;;5.07;3.70;;;13.00;74.40;;;;;;1989478;28;20186;-68
2021/12/26 04:21:14;;;;;;;5.20;3.60;;;13.00;74.80;;;;;;1989569;28;20601;-68
2021/12/26 04:22:12;;;;;;;7.90;3.83;;;13.10;70.80;;;;;;1989546;28;20182;-69
2021/12/26 04:23:14;;;;;;;5.70;4.00;;;13.10;71.70;;;;;;1989545;28;20491;-68
2021/12/26 04:24:13;;;;;;;6.43;4.25;;;13.00;64.50;;;;;;1989403;28;20170;-69
2021/12/26 04:25:12;;;;;;;7.70;3.70;;;13.10;66.50;;;;;;1988844;28;20174;-68
2021/12/26 04:26:10;;;;;;;5.13;3.90;;;13.00;73.10;;;;;;1989044;28;20408;-69
2021/12/26 04:27:09;;;;;;;5.60;3.43;;;13.00;70.50;;;;;;1989430;28;20265;-69
2021/12/26 04:28:07;;;;;;;6.23;3.90;;;13.10;71.60;;;;;;1989424;28;20632;-69
2021/12/26 04:29:08;;;;;;;6.20;3.63;;;13.10;72.90;;;;;;1989458;28;20182;-68
2021/12/26 04:30:10;;;;;;;6.60;4.55;;;13.10;60.60;;;;;;1989344;28;20650;-68
2021/12/26 04:31:09;;;;;;;6.05;3.85;;;13.10;61.20;;;;;;1989389;28;20187;-68
2021/12/26 04:32:07;;;;;;;5.37;4.20;;;13.10;61.10;;;;;;1989260;28;20218;-69
2021/12/26 04:33:06;;;;;;;6.57;4.33;;;13.10;61.00;;;;;;1989367;28;20171;-69
2021/12/26 04:34:05;;;;;;;4.57;3.60;;;13.10;60.90;;;;;;1989434;28;20170;-68
2021/12/26 04:35:04;;;;;;;6.40;4.00;;;13.10;61.10;;;;;;1989432;28;20174;-69
2021/12/26 04:36:03;;;;;;;6.47;4.30;;;13.10;61.20;;;;;;1989374;28;20402;-69
2021/12/26 04:37:02;;;;;;;4.68;3.70;;;13.00;61.10;;;;;;1989372;28;20542;-68
2021/12/26 04:38:01;;;;;;;5.57;3.17;;;13.00;61.20;;;;;;1989337;28;20182;-69
2021/12/26 04:38:59;;;;;;;10.77;4.03;;;13.00;61.20;;;;;;1989322;28;20437;-68
2021/12/26 04:39:58;;;;;;;5.80;4.07;;;13.00;61.10;;;;;;1989360;28;20166;-68
2021/12/26 04:40:57;;;;;;;3.90;3.37;;;13.00;61.30;;;;;;1989372;28;20179;-68
2021/12/26 04:41:55;;;;;;;7.23;4.40;;;13.00;61.10;;;;;;1989242;28;20169;-68
2021/12/26 04:42:54;;;;;;;8.03;4.23;;;13.00;61.20;;;;;;1989332;28;20670;-69
2021/12/26 04:43:53;;;;;;;5.32;3.60;;;13.00;61.20;;;;;;1989379;28;20181;-69
2021/12/26 04:44:53;;;;;;;6.27;4.07;;;13.00;61.20;;;;;;1989139;28;20202;-69
2021/12/26 04:45:51;;;;;;;5.10;3.53;;;13.00;61.30;;;;;;1988723;28;20785;-68
2021/12/26 04:46:50;;;;;;;5.03;3.57;;;13.00;61.20;;;;;;1988696;28;20318;-68
2021/12/26 04:47:51;;;;;;;8.20;3.70;;;13.00;61.20;;;;;;1989267;28;20634;-68
2021/12/26 04:48:50;;;;;;;6.93;4.15;;;13.00;61.40;;;;;;1989294;28;20174;-68
2021/12/26 04:49:48;;;;;;;4.90;3.70;;;13.00;61.40;;;;;;1989250;28;20174;-69
2021/12/26 04:50:47;;;;;;;4.77;3.60;;;13.00;61.30;;;;;;1989348;28;20221;-69
2021/12/26 04:51:46;;;;;;;6.10;3.50;;;13.00;61.40;;;;;;1989346;28;20526;-69
2021/12/26 04:52:45;;;;;;;3.53;3.23;;;13.00;61.20;;;;;;1989321;28;20182;-69
2021/12/26 04:53:44;;;;;;;4.65;3.75;;;13.00;61.40;;;;;;1989371;28;20179;-69
2021/12/26 04:54:43;;;;;;;4.83;3.60;;;13.00;61.40;;;;;;1989313;28;20189;-68
2021/12/26 04:55:41;;;;;;;5.03;3.60;;;13.10;61.40;;;;;;1989205;28;20170;-69
2021/12/26 04:56:40;;;;;;;5.33;3.00;;;13.00;61.20;;;;;;1989115;28;20186;-69
2021/12/26 04:57:38;;;;;;;6.20;3.40;;;12.90;61.10;;;;;;1989446;28;20178;-69
2021/12/26 04:58:37;;;;;;;7.10;3.53;;;13.00;61.30;;;;;;1988585;28;20233;-69
2021/12/26 04:59:36;;;;;;;4.00;3.13;;;12.90;61.30;;;;;;1988650;28;20170;-69
2021/12/26 05:00:34;;;;;;;4.53;3.20;;;12.90;61.30;;;;;;1989288;28;20445;-69
2021/12/26 05:01:34;;;;;;;3.80;3.20;;;12.90;61.30;;;;;;1989250;28;20180;-69
2021/12/26 05:02:35;;;;;;;3.22;2.88;;;12.90;61.40;;;;;;1989191;28;20167;-69
2021/12/26 05:03:34;;;;;;;10.00;3.90;;;12.80;61.60;;;;;;1988541;28;20621;-69
2021/12/26 05:04:32;;;;;;;5.37;3.37;;;12.80;61.60;;;;;;1988658;28;20213;-69
2021/12/26 05:05:31;;;;;;;4.83;3.70;;;12.90;61.70;;;;;;1989220;28;20695;-69
2021/12/26 05:06:29;;;;;;;4.73;3.93;;;12.90;61.60;;;;;;1989246;28;20202;-68
2021/12/26 05:07:28;;;;;;;4.40;3.40;;;12.90;61.60;;;;;;1989174;28;20625;-69
2021/12/26 05:08:27;;;;;;;5.03;3.50;;;13.10;61.70;;;;;;1989195;28;20634;-69
2021/12/26 05:09:25;;;;;;;5.73;3.77;;;13.00;61.50;;;;;;1989144;28;20494;-69
2021/12/26 05:10:27;;;;;;;7.63;3.70;;;12.90;61.70;;;;;;1989132;28;20174;-69
2021/12/26 05:11:25;;;;;;;6.10;4.00;;;12.90;61.80;;;;;;1989202;28;20210;-69
2021/12/26 05:12:24;;;;;;;7.50;3.90;;;12.90;61.90;;;;;;1989117;28;20673;-69
2021/12/26 05:13:22;;;;;;;5.30;3.17;;;12.90;61.80;;;;;;1988394;28;20664;-69
2021/12/26 05:14:21;;;;;;;5.33;3.77;;;12.90;62.00;;;;;;1988664;28;20217;-69
2021/12/26 05:15:21;;;;;;;5.27;2.77;;;12.90;61.80;;;;;;1989250;28;20174;-69